Aviation Digital Data Service (ADDS)

Output produced by METARs form (2011 UTC 20 August 2019)
found at http://www.aviationweather.gov/metar/data/
 
METAR text: KGYY 201945Z VRB04KT 6SM -RA SCT060 BKN090 OVC150 22/21 A3001
Conditions at: KGYY (GARY REGIONAL , IN, US) observed 1945 UTC 20 August 2019
Temperature: 22.0°C (72°F)
Dewpoint: 21.0°C (70°F) [RH = 94%]
Pressure (altimeter): 30.01 inches Hg (1016.3 mb)
Winds: variable direction winds at 5 MPH (4 knots; 2.1 m/s)
Visibility: 6 miles (10 km)
Ceiling: 9000 feet AGL
Clouds: scattered clouds at 6000 feet AGL
broken clouds at 9000 feet AGL
overcast cloud deck at 15000 feet AGL
Weather: -RA  (light rain)

METAR text: KGYY 201845Z 18006KT 4SM -RA SCT032 BKN039 OVC049 21/20 A3001 RMK LTG DSNT S
Conditions at: KGYY (GARY REGIONAL , IN, US) observed 1845 UTC 20 August 2019
Temperature: 21.0°C (70°F)
Dewpoint: 20.0°C (68°F) [RH = 94%]
Pressure (altimeter): 30.01 inches Hg (1016.3 mb)
Winds: from the S (180 degrees) at 7 MPH (6 knots; 3.1 m/s)
Visibility: 4 miles ( 6 km)
Ceiling: 3900 feet AGL
Clouds: scattered clouds at 3200 feet AGL
broken clouds at 3900 feet AGL
overcast cloud deck at 4900 feet AGL
Weather: -RA  (light rain)

METAR text: KGYY 201753Z 24006KT 5SM -RA SCT016 BKN036 OVC090 21/19 A3002 RMK LTG DSNT S AND SW TSE53
Conditions at: KGYY (GARY REGIONAL , IN, US) observed 1753 UTC 20 August 2019
Temperature: 21.0°C (70°F)
Dewpoint: 19.0°C (66°F) [RH = 88%]
Pressure (altimeter): 30.02 inches Hg (1016.7 mb)
Winds: from the WSW (240 degrees) at 7 MPH (6 knots; 3.1 m/s)
Visibility: 5 miles ( 8 km)
Ceiling: 3600 feet AGL
Clouds: scattered clouds at 1600 feet AGL
broken clouds at 3600 feet AGL
overcast cloud deck at 9000 feet AGL
Weather: -RA  (light rain)

METAR text: KGYY 201745Z 27012G34KT 5SM TSRA SCT014 BKN037 OVC065 22/19 A3002 RMK OCNL LTGICCG OHD RAB28 TS OHD MOV E
Conditions at: KGYY (GARY REGIONAL , IN, US) observed 1745 UTC 20 August 2019
Temperature: 22.0°C (72°F)
Dewpoint: 19.0°C (66°F) [RH = 83%]
Pressure (altimeter): 30.02 inches Hg (1016.7 mb)
Winds: from the W (270 degrees) at 14 MPH (12 knots; 6.2 m/s)
gusting to 39 MPH (34 knots; 17.5 m/s)
Visibility: 5 miles ( 8 km)
Ceiling: 3700 feet AGL
Clouds: scattered clouds at 1400 feet AGL
broken clouds at 3700 feet AGL
overcast cloud deck at 6500 feet AGL
Weather: TSRA  (rain associated with thunderstorm(s))

METAR text: KGYY 201715Z COR 20004KT 10SM TS OVC060 26/23 A3000 RMK OCNL LTG ICCG TSB15 TSOHD MOV E
Conditions at: KGYY (GARY REGIONAL , IN, US) observed 1715 UTC 20 August 2019
Temperature: 26.0°C (79°F)
Dewpoint: 23.0°C (73°F) [RH = 84%]
Pressure (altimeter): 30.00 inches Hg (1016.0 mb)
Winds: from the SSW (200 degrees) at 5 MPH (4 knots; 2.1 m/s)
Visibility: 10 or more miles (16+ km)
Ceiling: 6000 feet AGL
Clouds: overcast cloud deck at 6000 feet AGL
Weather: TS  (thunderstorm)

METAR text: KGYY 201645Z COR 20004KT 10SM TS OVC060 26/23 A3000 RMK OCNL LTGICCG OHD TSB15 TS OHD MOV E
Conditions at: KGYY (GARY REGIONAL , IN, US) observed 1645 UTC 20 August 2019
Temperature: 26.0°C (79°F)
Dewpoint: 23.0°C (73°F) [RH = 84%]
Pressure (altimeter): 30.00 inches Hg (1016.0 mb)
Winds: from the SSW (200 degrees) at 5 MPH (4 knots; 2.1 m/s)
Visibility: 10 or more miles (16+ km)
Ceiling: 6000 feet AGL
Clouds: overcast cloud deck at 6000 feet AGL
Weather: TS  (thunderstorm)

METAR text: KGYY 201545Z COR 16005KT 10SM OVC150 26/23 A2998
Conditions at: KGYY (GARY REGIONAL , IN, US) observed 1545 UTC 20 August 2019
Temperature: 26.0°C (79°F)
Dewpoint: 23.0°C (73°F) [RH = 84%]
Pressure (altimeter): 29.98 inches Hg (1015.3 mb)
Winds: from the SSE (160 degrees) at 6 MPH (5 knots; 2.6 m/s)
Visibility: 10 or more miles (16+ km)
Ceiling: 15000 feet AGL
Clouds: overcast cloud deck at 15000 feet AGL
Weather: no significant weather observed at this time

METAR text: KGYY 201445Z 18004KT 10SM OVC200 27/24 A3001
Conditions at: KGYY (GARY REGIONAL , IN, US) observed 1445 UTC 20 August 2019
Temperature: 27.0°C (81°F)
Dewpoint: 24.0°C (75°F) [RH = 84%]
Pressure (altimeter): 30.01 inches Hg (1016.3 mb)
Winds: from the S (180 degrees) at 5 MPH (4 knots; 2.1 m/s)
Visibility: 10 or more miles (16+ km)
Ceiling: 20000 feet AGL
Clouds: overcast cloud deck at 20000 feet AGL
Weather: no significant weather observed at this time

METAR text: KGYY 201345Z 18005KT 10SM OVC150 26/24 A3002
Conditions at: KGYY (GARY REGIONAL , IN, US) observed 1345 UTC 20 August 2019
Temperature: 26.0°C (79°F)
Dewpoint: 24.0°C (75°F) [RH = 89%]
Pressure (altimeter): 30.02 inches Hg (1016.7 mb)
Winds: from the S (180 degrees) at 6 MPH (5 knots; 2.6 m/s)
Visibility: 10 or more miles (16+ km)
Ceiling: 15000 feet AGL
Clouds: overcast cloud deck at 15000 feet AGL
Weather: no significant weather observed at this time

METAR text: KGYY 201245Z 15005KT 10SM FEW050 25/24 A3002
Conditions at: KGYY (GARY REGIONAL , IN, US) observed 1245 UTC 20 August 2019
Temperature: 25.0°C (77°F)
Dewpoint: 24.0°C (75°F) [RH = 94%]
Pressure (altimeter): 30.02 inches Hg (1016.7 mb)
Winds: from the SSE (150 degrees) at 6 MPH (5 knots; 2.6 m/s)
Visibility: 10 or more miles (16+ km)
Ceiling: at least 12,000 feet AGL
Clouds: few clouds at 5000 feet AGL
Weather: no significant weather observed at this time

METAR text: KGYY 201145Z 00000KT 10SM FEW050 24/24 A3001
Conditions at: KGYY (GARY REGIONAL , IN, US) observed 1145 UTC 20 August 2019
Temperature: 24.0°C (75°F)
Dewpoint: 24.0°C (75°F) [RH = 100%]
Pressure (altimeter): 30.01 inches Hg (1016.3 mb)
Winds: calm
Visibility: 10 or more miles (16+ km)
Ceiling: at least 12,000 feet AGL
Clouds: few clouds at 5000 feet AGL
Weather: no significant weather observed at this time

METAR text: KGYY 201045Z 15005KT 10SM SKC 23/23 A2997
Conditions at: KGYY (GARY REGIONAL , IN, US) observed 1045 UTC 20 August 2019
Temperature: 23.0°C (73°F)
Dewpoint: 23.0°C (73°F) [RH = 100%]
Pressure (altimeter): 29.97 inches Hg (1015.0 mb)
Winds: from the SSE (150 degrees) at 6 MPH (5 knots; 2.6 m/s)
Visibility: 10 or more miles (16+ km)
Ceiling: at least 12,000 feet AGL
Clouds: clear skies
Weather: no significant weather observed at this time

METAR text: KGYY 200945Z 00000KT 10SM SCT033 23/23 A3002
Conditions at: KGYY (GARY REGIONAL , IN, US) observed 0945 UTC 20 August 2019
Temperature: 23.0°C (73°F)
Dewpoint: 23.0°C (73°F) [RH = 100%]
Pressure (altimeter): 30.02 inches Hg (1016.7 mb)
Winds: calm
Visibility: 10 or more miles (16+ km)
Ceiling: at least 12,000 feet AGL
Clouds: scattered clouds at 3300 feet AGL
Weather: no significant weather observed at this time

METAR text: KGYY 200915Z AUTO 00000KT 7SM SCT035 SCT041 24/24 A3003 RMK AO2 T02360236
Conditions at: KGYY (GARY REGIONAL , IN, US) observed 0915 UTC 20 August 2019
Temperature: 23.6°C (74°F)
Dewpoint: 23.6°C (74°F) [RH = 100%]
Pressure (altimeter): 30.03 inches Hg (1017.0 mb)
Winds: calm
Visibility: 7 miles (11 km)
Ceiling: at least 12,000 feet AGL
Clouds: scattered clouds at 3500 feet AGL
scattered clouds at 4100 feet AGL
Weather: automated observation with no human augmentation;
there may or may not be significant weather present at this time

METAR text: KGYY 200855Z AUTO 00000KT 7SM SCT038 24/24 A3004 RMK AO2 T02350235
Conditions at: KGYY (GARY REGIONAL , IN, US) observed 0855 UTC 20 August 2019
Temperature: 23.5°C (74°F)
Dewpoint: 23.5°C (74°F) [RH = 100%]
Pressure (altimeter): 30.04 inches Hg (1017.4 mb)
Winds: calm
Visibility: 7 miles (11 km)
Ceiling: at least 12,000 feet AGL
Clouds: scattered clouds at 3800 feet AGL
Weather: automated observation with no human augmentation;
there may or may not be significant weather present at this time

METAR text: KGYY 200835Z AUTO 00000KT 7SM CLR 24/24 A3003 RMK AO2 T02360236
Conditions at: KGYY (GARY REGIONAL , IN, US) observed 0835 UTC 20 August 2019
Temperature: 23.6°C (74°F)
Dewpoint: 23.6°C (74°F) [RH = 100%]
Pressure (altimeter): 30.03 inches Hg (1017.0 mb)
Winds: calm
Visibility: 7 miles (11 km)
Ceiling: at least 12,000 feet AGL
Clouds: sky clear below 12,000 feet AGL
Weather: automated observation with no human augmentation;
there may or may not be significant weather present at this time

METAR text: KGYY 200815Z AUTO 00000KT 7SM CLR 24/24 A3003 RMK AO2 T02350235
Conditions at: KGYY (GARY REGIONAL , IN, US) observed 0815 UTC 20 August 2019
Temperature: 23.5°C (74°F)
Dewpoint: 23.5°C (74°F) [RH = 100%]
Pressure (altimeter): 30.03 inches Hg (1017.0 mb)
Winds: calm
Visibility: 7 miles (11 km)
Ceiling: at least 12,000 feet AGL
Clouds: sky clear below 12,000 feet AGL
Weather: automated observation with no human augmentation;
there may or may not be significant weather present at this time

METAR text: KGYY 200755Z AUTO 00000KT 7SM CLR 22/22 A3003 RMK AO2 T02220222
Conditions at: KGYY (GARY REGIONAL , IN, US) observed 0755 UTC 20 August 2019
Temperature: 22.2°C (72°F)
Dewpoint: 22.2°C (72°F) [RH = 100%]
Pressure (altimeter): 30.03 inches Hg (1017.0 mb)
Winds: calm
Visibility: 7 miles (11 km)
Ceiling: at least 12,000 feet AGL
Clouds: sky clear below 12,000 feet AGL
Weather: automated observation with no human augmentation;
there may or may not be significant weather present at this time

METAR text: KGYY 200735Z AUTO 00000KT 7SM SCT038 22/22 A3003 RMK AO2 T02220222
Conditions at: KGYY (GARY REGIONAL , IN, US) observed 0735 UTC 20 August 2019
Temperature: 22.2°C (72°F)
Dewpoint: 22.2°C (72°F) [RH = 100%]
Pressure (altimeter): 30.03 inches Hg (1017.0 mb)
Winds: calm
Visibility: 7 miles (11 km)
Ceiling: at least 12,000 feet AGL
Clouds: scattered clouds at 3800 feet AGL
Weather: automated observation with no human augmentation;
there may or may not be significant weather present at this time

METAR text: KGYY 200715Z AUTO 00000KT 5SM BR CLR 22/22 A3003 RMK AO2 T02190219
Conditions at: KGYY (GARY REGIONAL , IN, US) observed 0715 UTC 20 August 2019
Temperature: 21.9°C (71°F)
Dewpoint: 21.9°C (71°F) [RH = 100%]
Pressure (altimeter): 30.03 inches Hg (1017.0 mb)
Winds: calm
Visibility: 5 miles ( 8 km)
Ceiling: at least 12,000 feet AGL
Clouds: sky clear below 12,000 feet AGL
Weather: BR  (mist)

METAR text: KGYY 200655Z AUTO 00000KT 4SM BR CLR 22/22 A3002 RMK AO2 T02220222
Conditions at: KGYY (GARY REGIONAL , IN, US) observed 0655 UTC 20 August 2019
Temperature: 22.2°C (72°F)
Dewpoint: 22.2°C (72°F) [RH = 100%]
Pressure (altimeter): 30.02 inches Hg (1016.7 mb)
Winds: calm
Visibility: 4 miles ( 6 km)
Ceiling: at least 12,000 feet AGL
Clouds: sky clear below 12,000 feet AGL
Weather: BR  (mist)

METAR text: KGYY 200635Z AUTO 00000KT 5SM BR CLR 23/23 A3002 RMK AO2 T02250225
Conditions at: KGYY (GARY REGIONAL , IN, US) observed 0635 UTC 20 August 2019
Temperature: 22.5°C (72°F)
Dewpoint: 22.5°C (72°F) [RH = 100%]
Pressure (altimeter): 30.02 inches Hg (1016.7 mb)
Winds: calm
Visibility: 5 miles ( 8 km)
Ceiling: at least 12,000 feet AGL
Clouds: sky clear below 12,000 feet AGL
Weather: BR  (mist)

METAR text: KGYY 200615Z AUTO 00000KT 10SM CLR 24/23 A3003 RMK AO2 T02360232
Conditions at: KGYY (GARY REGIONAL , IN, US) observed 0615 UTC 20 August 2019
Temperature: 23.6°C (74°F)
Dewpoint: 23.2°C (74°F) [RH = 98%]
Pressure (altimeter): 30.03 inches Hg (1017.0 mb)
Winds: calm
Visibility: 10 or more miles (16+ km)
Ceiling: at least 12,000 feet AGL
Clouds: sky clear below 12,000 feet AGL
Weather: automated observation with no human augmentation;
there may or may not be significant weather present at this time

METAR text: KGYY 200555Z AUTO 15004KT 10SM CLR 24/24 A3002 RMK AO2 T02370237 10271 20226 403090193
Conditions at: KGYY (GARY REGIONAL , IN, US) observed 0555 UTC 20 August 2019
Temperature: 23.7°C (75°F)
Dewpoint: 23.7°C (75°F) [RH = 100%]
Pressure (altimeter): 30.02 inches Hg (1016.7 mb)
Winds: from the SSE (150 degrees) at 5 MPH (4 knots; 2.1 m/s)
Visibility: 10 or more miles (16+ km)
Ceiling: at least 12,000 feet AGL
Clouds: sky clear below 12,000 feet AGL
Weather: automated observation with no human augmentation;
there may or may not be significant weather present at this time

METAR text: KGYY 200535Z AUTO 00000KT 7SM CLR 23/23 A3002 RMK AO2 T02280227
Conditions at: KGYY (GARY REGIONAL , IN, US) observed 0535 UTC 20 August 2019
Temperature: 22.8°C (73°F)
Dewpoint: 22.7°C (73°F) [RH = 99%]
Pressure (altimeter): 30.02 inches Hg (1016.7 mb)
Winds: calm
Visibility: 7 miles (11 km)
Ceiling: at least 12,000 feet AGL
Clouds: sky clear below 12,000 feet AGL
Weather: automated observation with no human augmentation;
there may or may not be significant weather present at this time

METAR text: KGYY 200515Z AUTO 00000KT 7SM CLR 24/23 A3002 RMK AO2 T02380231
Conditions at: KGYY (GARY REGIONAL , IN, US) observed 0515 UTC 20 August 2019
Temperature: 23.8°C (75°F)
Dewpoint: 23.1°C (74°F) [RH = 96%]
Pressure (altimeter): 30.02 inches Hg (1016.7 mb)
Winds: calm
Visibility: 7 miles (11 km)
Ceiling: at least 12,000 feet AGL
Clouds: sky clear below 12,000 feet AGL
Weather: automated observation with no human augmentation;
there may or may not be significant weather present at this time

METAR text: KGYY 200455Z AUTO 00000KT 7SM CLR 25/24 A3002 RMK AO2 T02470237
Conditions at: KGYY (GARY REGIONAL , IN, US) observed 0455 UTC 20 August 2019
Temperature: 24.7°C (76°F)
Dewpoint: 23.7°C (75°F) [RH = 94%]
Pressure (altimeter): 30.02 inches Hg (1016.7 mb)
Winds: calm
Visibility: 7 miles (11 km)
Ceiling: at least 12,000 feet AGL
Clouds: sky clear below 12,000 feet AGL
Weather: automated observation with no human augmentation;
there may or may not be significant weather present at this time

METAR text: KGYY 200435Z AUTO 16004KT 10SM SCT042 24/24 A3002 RMK AO2 T02430243
Conditions at: KGYY (GARY REGIONAL , IN, US) observed 0435 UTC 20 August 2019
Temperature: 24.3°C (76°F)
Dewpoint: 24.3°C (76°F) [RH = 100%]
Pressure (altimeter): 30.02 inches Hg (1016.7 mb)
Winds: from the SSE (160 degrees) at 5 MPH (4 knots; 2.1 m/s)
Visibility: 10 or more miles (16+ km)
Ceiling: at least 12,000 feet AGL
Clouds: scattered clouds at 4200 feet AGL
Weather: automated observation with no human augmentation;
there may or may not be significant weather present at this time

METAR text: KGYY 200415Z AUTO 00000KT 10SM SCT055 24/24 A3002 RMK AO2 T02390235
Conditions at: KGYY (GARY REGIONAL , IN, US) observed 0415 UTC 20 August 2019
Temperature: 23.9°C (75°F)
Dewpoint: 23.5°C (74°F) [RH = 98%]
Pressure (altimeter): 30.02 inches Hg (1016.7 mb)
Winds: calm
Visibility: 10 or more miles (16+ km)
Ceiling: at least 12,000 feet AGL
Clouds: scattered clouds at 5500 feet AGL
Weather: automated observation with no human augmentation;
there may or may not be significant weather present at this time

METAR text: KGYY 200355Z AUTO 00000KT 10SM SCT055 SCT075 SCT110 25/24 A3002 RMK AO2 T02470235
Conditions at: KGYY (GARY REGIONAL , IN, US) observed 0355 UTC 20 August 2019
Temperature: 24.7°C (76°F)
Dewpoint: 23.5°C (74°F) [RH = 93%]
Pressure (altimeter): 30.02 inches Hg (1016.7 mb)
Winds: calm
Visibility: 10 or more miles (16+ km)
Ceiling: at least 12,000 feet AGL
Clouds: scattered clouds at 5500 feet AGL
scattered clouds at 7500 feet AGL
scattered clouds at 11000 feet AGL
Weather: automated observation with no human augmentation;
there may or may not be significant weather present at this time

METAR text: KGYY 200335Z AUTO 00000KT 10SM -RA SCT045 SCT055 BKN075 26/23 A3002 RMK AO2 T02590234
Conditions at: KGYY (GARY REGIONAL , IN, US) observed 0335 UTC 20 August 2019
Temperature: 25.9°C (79°F)
Dewpoint: 23.4°C (74°F) [RH = 86%]
Pressure (altimeter): 30.02 inches Hg (1016.7 mb)
Winds: calm
Visibility: 10 or more miles (16+ km)
Ceiling: 7500 feet AGL
Clouds: scattered clouds at 4500 feet AGL
scattered clouds at 5500 feet AGL
broken clouds at 7500 feet AGL
Weather: -RA  (light rain)

METAR text: KGYY 200315Z AUTO 00000KT 10SM -RA SCT043 SCT050 BKN090 27/23 A3003 RMK AO2 T02670227
Conditions at: KGYY (GARY REGIONAL , IN, US) observed 0315 UTC 20 August 2019
Temperature: 26.7°C (80°F)
Dewpoint: 22.7°C (73°F) [RH = 79%]
Pressure (altimeter): 30.03 inches Hg (1017.0 mb)
Winds: calm
Visibility: 10 or more miles (16+ km)
Ceiling: 9000 feet AGL
Clouds: scattered clouds at 4300 feet AGL
scattered clouds at 5000 feet AGL
broken clouds at 9000 feet AGL
Weather: -RA  (light rain)

METAR text: KGYY 200245Z 15004KT 10SM SCT090 SCT110 26/23 A3002
Conditions at: KGYY (GARY REGIONAL , IN, US) observed 0245 UTC 20 August 2019
Temperature: 26.0°C (79°F)
Dewpoint: 23.0°C (73°F) [RH = 84%]
Pressure (altimeter): 30.02 inches Hg (1016.7 mb)
Winds: from the SSE (150 degrees) at 5 MPH (4 knots; 2.1 m/s)
Visibility: 10 or more miles (16+ km)
Ceiling: at least 12,000 feet AGL
Clouds: scattered clouds at 9000 feet AGL
scattered clouds at 11000 feet AGL
Weather: no significant weather observed at this time

METAR text: KGYY 200145Z 14003KT 10SM SCT048 BKN060 25/24 A3001
Conditions at: KGYY (GARY REGIONAL , IN, US) observed 0145 UTC 20 August 2019
Temperature: 25.0°C (77°F)
Dewpoint: 24.0°C (75°F) [RH = 94%]
Pressure (altimeter): 30.01 inches Hg (1016.3 mb)
Winds: from the SE (140 degrees) at 3 MPH (3 knots; 1.5 m/s)
Visibility: 10 or more miles (16+ km)
Ceiling: 6000 feet AGL
Clouds: scattered clouds at 4800 feet AGL
broken clouds at 6000 feet AGL
Weather: no significant weather observed at this time

METAR text: KGYY 200045Z 16003KT 10SM SCT050 SCT070 25/24 A2999
Conditions at: KGYY (GARY REGIONAL , IN, US) observed 0045 UTC 20 August 2019
Temperature: 25.0°C (77°F)
Dewpoint: 24.0°C (75°F) [RH = 94%]
Pressure (altimeter): 29.99 inches Hg (1015.7 mb)
Winds: from the SSE (160 degrees) at 3 MPH (3 knots; 1.5 m/s)
Visibility: 10 or more miles (16+ km)
Ceiling: at least 12,000 feet AGL
Clouds: scattered clouds at 5000 feet AGL
scattered clouds at 7000 feet AGL
Weather: no significant weather observed at this time

METAR text: KGYY 192345Z 07004KT 10SM BKN040 27/23 A2999
Conditions at: KGYY (GARY REGIONAL , IN, US) observed 2345 UTC 19 August 2019
Temperature: 27.0°C (81°F)
Dewpoint: 23.0°C (73°F) [RH = 79%]
Pressure (altimeter): 29.99 inches Hg (1015.7 mb)
Winds: from the ENE (70 degrees) at 5 MPH (4 knots; 2.1 m/s)
Visibility: 10 or more miles (16+ km)
Ceiling: 4000 feet AGL
Clouds: broken clouds at 4000 feet AGL
Weather: no significant weather observed at this time

METAR text: KGYY 192245Z 08004KT 10SM BKN043 BKN080 28/23 A2999
Conditions at: KGYY (GARY REGIONAL , IN, US) observed 2245 UTC 19 August 2019
Temperature: 28.0°C (82°F)
Dewpoint: 23.0°C (73°F) [RH = 74%]
Pressure (altimeter): 29.99 inches Hg (1015.7 mb)
Winds: from the E (80 degrees) at 5 MPH (4 knots; 2.1 m/s)
Visibility: 10 or more miles (16+ km)
Ceiling: 4300 feet AGL
Clouds: broken clouds at 4300 feet AGL
broken clouds at 8000 feet AGL
Weather: no significant weather observed at this time

METAR text: KGYY 192145Z 08009KT 10SM SCT041 BKN050 30/22 A3000
Conditions at: KGYY (GARY REGIONAL , IN, US) observed 2145 UTC 19 August 2019
Temperature: 30.0°C (86°F)
Dewpoint: 22.0°C (72°F) [RH = 62%]
Pressure (altimeter): 30.00 inches Hg (1016.0 mb)
Winds: from the E (80 degrees) at 10 MPH (9 knots; 4.6 m/s)
Visibility: 10 or more miles (16+ km)
Ceiling: 5000 feet AGL
Clouds: scattered clouds at 4100 feet AGL
broken clouds at 5000 feet AGL
Weather: no significant weather observed at this time

METAR text: KGYY 192045Z 10005KT 10SM SCT038 SCT055 30/22 A3000
Conditions at: KGYY (GARY REGIONAL , IN, US) observed 2045 UTC 19 August 2019
Temperature: 30.0°C (86°F)
Dewpoint: 22.0°C (72°F) [RH = 62%]
Pressure (altimeter): 30.00 inches Hg (1016.0 mb)
Winds: from the E (100 degrees) at 6 MPH (5 knots; 2.6 m/s)
Visibility: 10 or more miles (16+ km)
Ceiling: at least 12,000 feet AGL
Clouds: scattered clouds at 3800 feet AGL
scattered clouds at 5500 feet AGL
Weather: no significant weather observed at this time

METAR text: KGYY 191945Z 09007KT 10SM SCT035 SCT090 30/22 A3002
Conditions at: KGYY (GARY REGIONAL , IN, US) observed 1945 UTC 19 August 2019
Temperature: 30.0°C (86°F)
Dewpoint: 22.0°C (72°F) [RH = 62%]
Pressure (altimeter): 30.02 inches Hg (1016.7 mb)
Winds: from the E (90 degrees) at 8 MPH (7 knots; 3.6 m/s)
Visibility: 10 or more miles (16+ km)
Ceiling: at least 12,000 feet AGL
Clouds: scattered clouds at 3500 feet AGL
scattered clouds at 9000 feet AGL
Weather: no significant weather observed at this time

METAR text: KGYY 191845Z 06009KT 10SM SCT080 29/21 A3003
Conditions at: KGYY (GARY REGIONAL , IN, US) observed 1845 UTC 19 August 2019
Temperature: 29.0°C (84°F)
Dewpoint: 21.0°C (70°F) [RH = 62%]
Pressure (altimeter): 30.03 inches Hg (1017.0 mb)
Winds: from the ENE (60 degrees) at 10 MPH (9 knots; 4.6 m/s)
Visibility: 10 or more miles (16+ km)
Ceiling: at least 12,000 feet AGL
Clouds: scattered clouds at 8000 feet AGL
Weather: no significant weather observed at this time

METAR text: KGYY 191745Z 03007KT 10SM SCT050 28/21 A3004
Conditions at: KGYY (GARY REGIONAL , IN, US) observed 1745 UTC 19 August 2019
Temperature: 28.0°C (82°F)
Dewpoint: 21.0°C (70°F) [RH = 66%]
Pressure (altimeter): 30.04 inches Hg (1017.4 mb)
Winds: from the NNE (30 degrees) at 8 MPH (7 knots; 3.6 m/s)
Visibility: 10 or more miles (16+ km)
Ceiling: at least 12,000 feet AGL
Clouds: scattered clouds at 5000 feet AGL
Weather: no significant weather observed at this time

METAR text: KGYY 191645Z 01007KT 10SM SCT070 28/22 A3003
Conditions at: KGYY (GARY REGIONAL , IN, US) observed 1645 UTC 19 August 2019
Temperature: 28.0°C (82°F)
Dewpoint: 22.0°C (72°F) [RH = 70%]
Pressure (altimeter): 30.03 inches Hg (1017.0 mb)
Winds: from the N (10 degrees) at 8 MPH (7 knots; 3.6 m/s)
Visibility: 10 or more miles (16+ km)
Ceiling: at least 12,000 feet AGL
Clouds: scattered clouds at 7000 feet AGL
Weather: no significant weather observed at this time

METAR text: KGYY 191545Z 00000KT 10SM FEW070 28/21 A3003
Conditions at: KGYY (GARY REGIONAL , IN, US) observed 1545 UTC 19 August 2019
Temperature: 28.0°C (82°F)
Dewpoint: 21.0°C (70°F) [RH = 66%]
Pressure (altimeter): 30.03 inches Hg (1017.0 mb)
Winds: calm
Visibility: 10 or more miles (16+ km)
Ceiling: at least 12,000 feet AGL
Clouds: few clouds at 7000 feet AGL
Weather: no significant weather observed at this time

METAR text: KGYY 191445Z 00000KT 10SM FEW070 27/21 A3002
Conditions at: KGYY (GARY REGIONAL , IN, US) observed 1445 UTC 19 August 2019
Temperature: 27.0°C (81°F)
Dewpoint: 21.0°C (70°F) [RH = 70%]
Pressure (altimeter): 30.02 inches Hg (1016.7 mb)
Winds: calm
Visibility: 10 or more miles (16+ km)
Ceiling: at least 12,000 feet AGL
Clouds: few clouds at 7000 feet AGL
Weather: no significant weather observed at this time

METAR text: KGYY 191345Z 00000KT 10SM FEW050 26/22 A3002
Conditions at: KGYY (GARY REGIONAL , IN, US) observed 1345 UTC 19 August 2019
Temperature: 26.0°C (79°F)
Dewpoint: 22.0°C (72°F) [RH = 79%]
Pressure (altimeter): 30.02 inches Hg (1016.7 mb)
Winds: calm
Visibility: 10 or more miles (16+ km)
Ceiling: at least 12,000 feet AGL
Clouds: few clouds at 5000 feet AGL
Weather: no significant weather observed at this time

METAR text: KGYY 191245Z 00000KT 10SM BKN041 23/22 A3002
Conditions at: KGYY (GARY REGIONAL , IN, US) observed 1245 UTC 19 August 2019
Temperature: 23.0°C (73°F)
Dewpoint: 22.0°C (72°F) [RH = 94%]
Pressure (altimeter): 30.02 inches Hg (1016.7 mb)
Winds: calm
Visibility: 10 or more miles (16+ km)
Ceiling: 4100 feet AGL
Clouds: broken clouds at 4100 feet AGL
Weather: no significant weather observed at this time

METAR text: KGYY 191145Z 00000KT 10SM BKN041 21/21 A3001
Conditions at: KGYY (GARY REGIONAL , IN, US) observed 1145 UTC 19 August 2019
Temperature: 21.0°C (70°F)
Dewpoint: 21.0°C (70°F) [RH = 100%]
Pressure (altimeter): 30.01 inches Hg (1016.3 mb)
Winds: calm
Visibility: 10 or more miles (16+ km)
Ceiling: 4100 feet AGL
Clouds: broken clouds at 4100 feet AGL
Weather: no significant weather observed at this time

METAR text: KGYY 191045Z 00000KT 10SM BKN080 21/21 A3000
Conditions at: KGYY (GARY REGIONAL , IN, US) observed 1045 UTC 19 August 2019
Temperature: 21.0°C (70°F)
Dewpoint: 21.0°C (70°F) [RH = 100%]
Pressure (altimeter): 30.00 inches Hg (1016.0 mb)
Winds: calm
Visibility: 10 or more miles (16+ km)
Ceiling: 8000 feet AGL
Clouds: broken clouds at 8000 feet AGL
Weather: no significant weather observed at this time

METAR text: KGYY 190945Z 00000KT 10SM BKN080 21/21 A2997
Conditions at: KGYY (GARY REGIONAL , IN, US) observed 0945 UTC 19 August 2019
Temperature: 21.0°C (70°F)
Dewpoint: 21.0°C (70°F) [RH = 100%]
Pressure (altimeter): 29.97 inches Hg (1015.0 mb)
Winds: calm
Visibility: 10 or more miles (16+ km)
Ceiling: 8000 feet AGL
Clouds: broken clouds at 8000 feet AGL
Weather: no significant weather observed at this time

METAR text: KGYY 190915Z AUTO 00000KT 10SM SCT080 OVC100 22/22 A2997 RMK AO2 T02150215
Conditions at: KGYY (GARY REGIONAL , IN, US) observed 0915 UTC 19 August 2019
Temperature: 21.5°C (71°F)
Dewpoint: 21.5°C (71°F) [RH = 100%]
Pressure (altimeter): 29.97 inches Hg (1015.0 mb)
Winds: calm
Visibility: 10 or more miles (16+ km)
Ceiling: 10000 feet AGL
Clouds: scattered clouds at 8000 feet AGL
overcast cloud deck at 10000 feet AGL
Weather: automated observation with no human augmentation;
there may or may not be significant weather present at this time

METAR text: KGYY 190855Z AUTO 00000KT 10SM BKN080 OVC100 21/21 A2996 RMK AO2 T02120212
Conditions at: KGYY (GARY REGIONAL , IN, US) observed 0855 UTC 19 August 2019
Temperature: 21.2°C (70°F)
Dewpoint: 21.2°C (70°F) [RH = 100%]
Pressure (altimeter): 29.96 inches Hg (1014.6 mb)
Winds: calm
Visibility: 10 or more miles (16+ km)
Ceiling: 8000 feet AGL
Clouds: broken clouds at 8000 feet AGL
overcast cloud deck at 10000 feet AGL
Weather: automated observation with no human augmentation;
there may or may not be significant weather present at this time

METAR text: KGYY 190835Z AUTO 00000KT 10SM SCT080 OVC100 21/21 A2995 RMK AO2 T02100210
Conditions at: KGYY (GARY REGIONAL , IN, US) observed 0835 UTC 19 August 2019
Temperature: 21.0°C (70°F)
Dewpoint: 21.0°C (70°F) [RH = 100%]
Pressure (altimeter): 29.95 inches Hg (1014.3 mb)
Winds: calm
Visibility: 10 or more miles (16+ km)
Ceiling: 10000 feet AGL
Clouds: scattered clouds at 8000 feet AGL
overcast cloud deck at 10000 feet AGL
Weather: automated observation with no human augmentation;
there may or may not be significant weather present at this time

METAR text: KGYY 190815Z AUTO 00000KT 7SM BKN100 20/20 A2995 RMK AO2 T01980198
Conditions at: KGYY (GARY REGIONAL , IN, US) observed 0815 UTC 19 August 2019
Temperature: 19.8°C (68°F)
Dewpoint: 19.8°C (68°F) [RH = 100%]
Pressure (altimeter): 29.95 inches Hg (1014.3 mb)
Winds: calm
Visibility: 7 miles (11 km)
Ceiling: 10000 feet AGL
Clouds: broken clouds at 10000 feet AGL
Weather: automated observation with no human augmentation;
there may or may not be significant weather present at this time

Forecast for: KGYY (GARY REGIONAL , IN, US)
Text: KGYY 201758Z 2018/2118 18006KT 5SM -SHRA VCTS SCT025 BKN050CB OVC100
Forecast period: 1800 to 1900 UTC 20 August 2019
Forecast type: FROM: standard forecast or significant change
Winds: from the S (180 degrees) at 7 MPH (6 knots; 3.1 m/s)
Visibility: 5 miles (8 km)
Ceiling: 5000 feet AGL
Clouds: scattered clouds at 2500 feet AGL
broken clouds at 5000 feet AGL
overcast cloud deck at 10000 feet AGL
Weather: -SHRA VCTS  (light rain showers, thunderstorm in vicinity)
Text: TEMPO 2018/2019 3SM -TSRA BKN035CB
Forecast period: 1800 to 1900 UTC 20 August 2019
Forecast type: TEMPORARY: The following changes expected for less than half the time period
Visibility: 3 miles (5 km)
Ceiling: 3500 feet AGL
Clouds: broken clouds at 3500 feet AGL
Weather: -TSRA  (light rain associated with thunderstorm(s))
Text: FM201900 10008KT P6SM SCT035 OVC100
Forecast period: 1900 to 2300 UTC 20 August 2019
Forecast type: FROM: standard forecast or significant change
Winds: from the E (100 degrees) at 9 MPH (8 knots; 4.1 m/s)
Visibility: 6 or more miles 10+ km)
Ceiling: 10000 feet AGL
Clouds: scattered clouds at 3500 feet AGL
overcast cloud deck at 10000 feet AGL
Weather: no significant weather forecast for this period
Text: FM202300 21007KT P6SM SCT040 SCT100
Forecast period: 2300 UTC 20 August 2019 to 1000 UTC 21 August 2019
Forecast type: FROM: standard forecast or significant change
Winds: from the SSW (210 degrees) at 8 MPH (7 knots; 3.6 m/s)
Visibility: 6 or more miles 10+ km)
Ceiling: at least 12,000 feet AGL
Clouds: scattered clouds at 4000 feet AGL
scattered clouds at 10000 feet AGL
Weather: no significant weather forecast for this period
Text: FM211000 30008KT P6SM SCT015 BKN030
Forecast period: 1000 to 1800 UTC 21 August 2019
Forecast type: FROM: standard forecast or significant change
Winds: from the WNW (300 degrees) at 9 MPH (8 knots; 4.1 m/s)
Visibility: 6 or more miles 10+ km)
Ceiling: 3000 feet AGL
Clouds: scattered clouds at 1500 feet AGL
broken clouds at 3000 feet AGL
Weather: no significant weather forecast for this period
Text: TEMPO 2110/2113 4SM BR
Forecast period: 1000 to 1300 UTC 21 August 2019
Forecast type: TEMPORARY: The following changes expected for less than half the time period
Visibility: 4 miles (6 km)
Ceiling: unknown
Clouds: missing
Weather: BR  (mist)